sensor_id;sensor_type;location;lat;lon;timestamp;P1;durP1;ratioP1;P2;durP2;ratioP2
13731;SDS011;6937;56.096;12.664;2023-04-03T00:02:01;2.55;;;0.77;;
13731;SDS011;6937;56.096;12.664;2023-04-03T00:04:27;3.72;;;0.93;;
13731;SDS011;6937;56.096;12.664;2023-04-03T00:06:52;1.52;;;0.80;;
13731;SDS011;6937;56.096;12.664;2023-04-03T00:09:17;1.08;;;0.50;;
13731;SDS011;6937;56.096;12.664;2023-04-03T00:11:43;1.15;;;0.70;;
13731;SDS011;6937;56.096;12.664;2023-04-03T00:14:08;2.05;;;0.70;;
13731;SDS011;6937;56.096;12.664;2023-04-03T00:16:34;3.03;;;0.73;;
13731;SDS011;6937;56.096;12.664;2023-04-03T00:18:59;0.90;;;0.60;;
13731;SDS011;6937;56.096;12.664;2023-04-03T00:21:24;1.40;;;0.63;;
13731;SDS011;6937;56.096;12.664;2023-04-03T00:23:50;1.90;;;1.00;;
13731;SDS011;6937;56.096;12.664;2023-04-03T00:26:16;2.78;;;0.70;;
13731;SDS011;6937;56.096;12.664;2023-04-03T00:28:41;1.88;;;0.70;;
13731;SDS011;6937;56.096;12.664;2023-04-03T00:31:07;1.40;;;0.60;;
13731;SDS011;6937;56.096;12.664;2023-04-03T00:33:32;1.67;;;0.77;;
13731;SDS011;6937;56.096;12.664;2023-04-03T00:35:57;2.08;;;0.80;;
13731;SDS011;6937;56.096;12.664;2023-04-03T00:38:23;1.23;;;0.80;;
13731;SDS011;6937;56.096;12.664;2023-04-03T00:40:48;1.23;;;0.70;;
13731;SDS011;6937;56.096;12.664;2023-04-03T00:43:19;2.15;;;0.70;;
13731;SDS011;6937;56.096;12.664;2023-04-03T00:45:47;0.60;;;0.45;;
13731;SDS011;6937;56.096;12.664;2023-04-03T00:48:18;2.78;;;0.70;;
13731;SDS011;6937;56.096;12.664;2023-04-03T00:50:47;1.30;;;0.60;;
13731;SDS011;6937;56.096;12.664;2023-04-03T00:53:15;2.88;;;0.73;;
13731;SDS011;6937;56.096;12.664;2023-04-03T00:55:44;1.90;;;0.82;;
13731;SDS011;6937;56.096;12.664;2023-04-03T00:58:12;1.63;;;0.80;;
13731;SDS011;6937;56.096;12.664;2023-04-03T01:00:39;2.72;;;1.00;;
13731;SDS011;6937;56.096;12.664;2023-04-03T01:03:08;1.55;;;0.70;;
13731;SDS011;6937;56.096;12.664;2023-04-03T01:05:33;1.45;;;0.68;;
13731;SDS011;6937;56.096;12.664;2023-04-03T01:07:59;1.77;;;0.80;;
13731;SDS011;6937;56.096;12.664;2023-04-03T01:10:25;2.58;;;0.75;;
13731;SDS011;6937;56.096;12.664;2023-04-03T01:12:51;2.83;;;1.00;;
13731;SDS011;6937;56.096;12.664;2023-04-03T01:15:21;3.25;;;0.80;;
13731;SDS011;6937;56.096;12.664;2023-04-03T01:17:53;4.22;;;1.13;;
13731;SDS011;6937;56.096;12.664;2023-04-03T01:25:42;2.90;;;1.13;;
13731;SDS011;6937;56.096;12.664;2023-04-03T01:28:12;2.72;;;0.90;;
13731;SDS011;6937;56.096;12.664;2023-04-03T01:30:44;2.08;;;1.23;;
13731;SDS011;6937;56.096;12.664;2023-04-03T01:33:27;2.78;;;0.90;;
13731;SDS011;6937;56.096;12.664;2023-04-03T01:35:53;3.90;;;1.33;;
13731;SDS011;6937;56.096;12.664;2023-04-03T01:38:18;1.48;;;0.80;;
13731;SDS011;6937;56.096;12.664;2023-04-03T01:40:43;1.00;;;0.90;;
13731;SDS011;6937;56.096;12.664;2023-04-03T01:43:09;3.95;;;1.23;;
13731;SDS011;6937;56.096;12.664;2023-04-03T01:45:34;1.42;;;0.85;;
13731;SDS011;6937;56.096;12.664;2023-04-03T01:48:00;2.60;;;0.95;;
13731;SDS011;6937;56.096;12.664;2023-04-03T01:50:25;2.60;;;0.90;;
13731;SDS011;6937;56.096;12.664;2023-04-03T01:52:51;1.05;;;0.90;;
13731;SDS011;6937;56.096;12.664;2023-04-03T01:55:16;3.05;;;1.48;;
13731;SDS011;6937;56.096;12.664;2023-04-03T01:57:41;2.25;;;1.15;;
13731;SDS011;6937;56.096;12.664;2023-04-03T02:00:07;3.85;;;1.02;;
13731;SDS011;6937;56.096;12.664;2023-04-03T02:02:33;3.53;;;1.10;;
13731;SDS011;6937;56.096;12.664;2023-04-03T02:04:58;1.80;;;0.90;;
13731;SDS011;6937;56.096;12.664;2023-04-03T02:07:24;3.28;;;0.98;;
13731;SDS011;6937;56.096;12.664;2023-04-03T02:09:49;2.55;;;0.90;;
13731;SDS011;6937;56.096;12.664;2023-04-03T02:12:15;2.90;;;1.00;;
13731;SDS011;6937;56.096;12.664;2023-04-03T02:14:40;1.30;;;0.85;;
13731;SDS011;6937;56.096;12.664;2023-04-03T02:17:06;2.03;;;0.98;;
13731;SDS011;6937;56.096;12.664;2023-04-03T02:19:33;3.28;;;1.05;;
13731;SDS011;6937;56.096;12.664;2023-04-03T02:22:00;1.23;;;0.80;;
13731;SDS011;6937;56.096;12.664;2023-04-03T02:24:25;1.63;;;1.00;;
13731;SDS011;6937;56.096;12.664;2023-04-03T02:26:51;1.25;;;0.90;;
13731;SDS011;6937;56.096;12.664;2023-04-03T02:29:16;2.20;;;0.80;;
13731;SDS011;6937;56.096;12.664;2023-04-03T02:31:41;2.58;;;0.93;;
13731;SDS011;6937;56.096;12.664;2023-04-03T02:34:07;2.90;;;1.00;;
13731;SDS011;6937;56.096;12.664;2023-04-03T02:36:32;1.40;;;0.73;;
13731;SDS011;6937;56.096;12.664;2023-04-03T02:38:57;3.22;;;0.80;;
13731;SDS011;6937;56.096;12.664;2023-04-03T02:41:23;2.22;;;1.10;;
13731;SDS011;6937;56.096;12.664;2023-04-03T02:43:50;1.50;;;0.80;;
13731;SDS011;6937;56.096;12.664;2023-04-03T02:46:15;2.60;;;0.80;;
13731;SDS011;6937;56.096;12.664;2023-04-03T02:48:41;2.20;;;0.82;;
13731;SDS011;6937;56.096;12.664;2023-04-03T02:51:06;2.25;;;0.90;;
13731;SDS011;6937;56.096;12.664;2023-04-03T02:53:32;1.65;;;0.93;;
13731;SDS011;6937;56.096;12.664;2023-04-03T02:55:57;1.88;;;0.98;;
13731;SDS011;6937;56.096;12.664;2023-04-03T02:58:22;1.40;;;0.70;;
13731;SDS011;6937;56.096;12.664;2023-04-03T03:00:48;1.77;;;0.70;;
13731;SDS011;6937;56.096;12.664;2023-04-03T03:03:13;2.05;;;0.98;;
13731;SDS011;6937;56.096;12.664;2023-04-03T03:05:40;1.45;;;0.80;;
13731;SDS011;6937;56.096;12.664;2023-04-03T03:08:05;2.63;;;0.80;;
13731;SDS011;6937;56.096;12.664;2023-04-03T03:10:30;0.85;;;0.70;;
13731;SDS011;6937;56.096;12.664;2023-04-03T03:12:56;2.43;;;0.70;;
13731;SDS011;6937;56.096;12.664;2023-04-03T03:15:21;4.47;;;1.08;;
13731;SDS011;6937;56.096;12.664;2023-04-03T03:17:46;3.00;;;1.10;;
13731;SDS011;6937;56.096;12.664;2023-04-03T03:20:12;3.63;;;0.77;;
13731;SDS011;6937;56.096;12.664;2023-04-03T03:22:40;2.10;;;0.82;;
13731;SDS011;6937;56.096;12.664;2023-04-03T03:25:06;2.83;;;0.70;;
13731;SDS011;6937;56.096;12.664;2023-04-03T03:27:31;2.47;;;1.00;;
13731;SDS011;6937;56.096;12.664;2023-04-03T03:29:57;2.25;;;0.93;;
13731;SDS011;6937;56.096;12.664;2023-04-03T03:32:22;2.47;;;0.98;;
13731;SDS011;6937;56.096;12.664;2023-04-03T03:34:47;2.67;;;1.00;;
13731;SDS011;6937;56.096;12.664;2023-04-03T03:37:13;2.63;;;1.15;;
13731;SDS011;6937;56.096;12.664;2023-04-03T03:39:38;1.77;;;0.93;;
13731;SDS011;6937;56.096;12.664;2023-04-03T03:42:03;2.42;;;1.00;;
13731;SDS011;6937;56.096;12.664;2023-04-03T03:44:29;3.65;;;1.02;;
13731;SDS011;6937;56.096;12.664;2023-04-03T03:46:55;2.60;;;0.87;;
13731;SDS011;6937;56.096;12.664;2023-04-03T03:49:21;1.63;;;0.88;;
13731;SDS011;6937;56.096;12.664;2023-04-03T03:51:46;3.83;;;1.20;;
13731;SDS011;6937;56.096;12.664;2023-04-03T03:54:12;6.27;;;1.00;;
13731;SDS011;6937;56.096;12.664;2023-04-03T03:56:38;2.53;;;0.80;;
13731;SDS011;6937;56.096;12.664;2023-04-03T03:59:03;2.13;;;0.88;;
13731;SDS011;6937;56.096;12.664;2023-04-03T04:01:28;3.83;;;1.00;;
13731;SDS011;6937;56.096;12.664;2023-04-03T04:03:54;3.03;;;1.20;;
13731;SDS011;6937;56.096;12.664;2023-04-03T04:06:20;3.45;;;1.10;;
13731;SDS011;6937;56.096;12.664;2023-04-03T04:08:46;1.97;;;1.10;;
13731;SDS011;6937;56.096;12.664;2023-04-03T04:11:11;2.53;;;1.00;;
13731;SDS011;6937;56.096;12.664;2023-04-03T04:13:37;1.77;;;1.05;;
13731;SDS011;6937;56.096;12.664;2023-04-03T04:16:02;2.67;;;1.13;;
13731;SDS011;6937;56.096;12.664;2023-04-03T04:18:28;4.28;;;1.25;;
13731;SDS011;6937;56.096;12.664;2023-04-03T04:20:53;2.55;;;1.20;;
13731;SDS011;6937;56.096;12.664;2023-04-03T04:23:19;3.10;;;1.00;;
13731;SDS011;6937;56.096;12.664;2023-04-03T04:25:45;5.60;;;1.23;;
13731;SDS011;6937;56.096;12.664;2023-04-03T04:28:11;3.30;;;1.10;;
13731;SDS011;6937;56.096;12.664;2023-04-03T04:30:37;3.67;;;0.97;;
13731;SDS011;6937;56.096;12.664;2023-04-03T04:33:03;4.33;;;1.17;;
13731;SDS011;6937;56.096;12.664;2023-04-03T04:35:28;4.57;;;1.10;;
13731;SDS011;6937;56.096;12.664;2023-04-03T04:37:53;3.03;;;1.10;;
13731;SDS011;6937;56.096;12.664;2023-04-03T04:40:19;2.85;;;1.70;;
13731;SDS011;6937;56.096;12.664;2023-04-03T04:42:45;2.07;;;0.80;;
13731;SDS011;6937;56.096;12.664;2023-04-03T04:45:10;2.20;;;0.93;;
13731;SDS011;6937;56.096;12.664;2023-04-03T04:47:36;4.82;;;1.58;;
13731;SDS011;6937;56.096;12.664;2023-04-03T04:50:01;4.50;;;1.55;;
13731;SDS011;6937;56.096;12.664;2023-04-03T04:52:26;4.38;;;1.45;;
13731;SDS011;6937;56.096;12.664;2023-04-03T04:54:52;4.60;;;1.13;;
13731;SDS011;6937;56.096;12.664;2023-04-03T04:57:17;5.13;;;1.10;;
13731;SDS011;6937;56.096;12.664;2023-04-03T04:59:42;3.72;;;1.20;;
13731;SDS011;6937;56.096;12.664;2023-04-03T05:02:08;5.27;;;1.30;;
13731;SDS011;6937;56.096;12.664;2023-04-03T05:04:33;4.53;;;1.45;;
13731;SDS011;6937;56.096;12.664;2023-04-03T05:06:59;4.15;;;1.25;;
13731;SDS011;6937;56.096;12.664;2023-04-03T05:09:24;5.35;;;1.55;;
13731;SDS011;6937;56.096;12.664;2023-04-03T05:11:50;3.67;;;1.30;;
13731;SDS011;6937;56.096;12.664;2023-04-03T05:14:16;3.55;;;1.35;;
13731;SDS011;6937;56.096;12.664;2023-04-03T05:16:41;4.30;;;1.20;;
13731;SDS011;6937;56.096;12.664;2023-04-03T05:19:07;4.15;;;1.33;;
13731;SDS011;6937;56.096;12.664;2023-04-03T05:21:32;4.15;;;1.27;;
13731;SDS011;6937;56.096;12.664;2023-04-03T05:23:58;3.65;;;1.30;;
13731;SDS011;6937;56.096;12.664;2023-04-03T05:26:24;5.18;;;1.30;;
13731;SDS011;6937;56.096;12.664;2023-04-03T05:28:51;2.43;;;1.07;;
13731;SDS011;6937;56.096;12.664;2023-04-03T05:31:16;2.08;;;1.00;;
13731;SDS011;6937;56.096;12.664;2023-04-03T05:33:42;3.50;;;1.10;;
13731;SDS011;6937;56.096;12.664;2023-04-03T05:36:07;2.57;;;1.00;;
13731;SDS011;6937;56.096;12.664;2023-04-03T05:38:33;2.70;;;1.25;;
13731;SDS011;6937;56.096;12.664;2023-04-03T05:40:58;2.95;;;1.13;;
13731;SDS011;6937;56.096;12.664;2023-04-03T05:43:24;2.85;;;1.27;;
13731;SDS011;6937;56.096;12.664;2023-04-03T05:45:50;3.07;;;1.23;;
13731;SDS011;6937;56.096;12.664;2023-04-03T05:48:16;2.90;;;1.00;;
13731;SDS011;6937;56.096;12.664;2023-04-03T05:50:41;2.50;;;0.90;;
13731;SDS011;6937;56.096;12.664;2023-04-03T05:53:07;3.97;;;1.08;;
13731;SDS011;6937;56.096;12.664;2023-04-03T05:55:56;3.67;;;1.00;;
13731;SDS011;6937;56.096;12.664;2023-04-03T05:58:21;2.50;;;0.90;;
13731;SDS011;6937;56.096;12.664;2023-04-03T06:00:47;3.67;;;0.98;;
13731;SDS011;6937;56.096;12.664;2023-04-03T06:03:12;2.78;;;1.10;;
13731;SDS011;6937;56.096;12.664;2023-04-03T06:05:37;2.15;;;1.00;;
13731;SDS011;6937;56.096;12.664;2023-04-03T06:08:03;4.10;;;1.35;;
13731;SDS011;6937;56.096;12.664;2023-04-03T06:10:28;2.75;;;1.00;;
13731;SDS011;6937;56.096;12.664;2023-04-03T06:12:54;3.50;;;0.85;;
13731;SDS011;6937;56.096;12.664;2023-04-03T06:15:20;2.10;;;0.70;;
13731;SDS011;6937;56.096;12.664;2023-04-03T06:17:46;4.80;;;1.30;;
13731;SDS011;6937;56.096;12.664;2023-04-03T06:20:11;4.57;;;1.23;;
13731;SDS011;6937;56.096;12.664;2023-04-03T06:22:37;3.15;;;0.90;;
13731;SDS011;6937;56.096;12.664;2023-04-03T06:25:03;4.10;;;1.00;;
13731;SDS011;6937;56.096;12.664;2023-04-03T06:27:28;3.13;;;1.10;;
13731;SDS011;6937;56.096;12.664;2023-04-03T06:29:54;4.53;;;0.90;;
13731;SDS011;6937;56.096;12.664;2023-04-03T06:32:19;3.80;;;1.17;;
13731;SDS011;6937;56.096;12.664;2023-04-03T06:34:45;3.20;;;0.95;;
13731;SDS011;6937;56.096;12.664;2023-04-03T06:37:21;1.88;;;1.10;;
13731;SDS011;6937;56.096;12.664;2023-04-03T06:39:47;2.53;;;1.20;;
13731;SDS011;6937;56.096;12.664;2023-04-03T06:42:13;3.05;;;0.95;;
13731;SDS011;6937;56.096;12.664;2023-04-03T06:44:39;3.35;;;1.10;;
13731;SDS011;6937;56.096;12.664;2023-04-03T06:47:04;2.35;;;0.80;;
13731;SDS011;6937;56.096;12.664;2023-04-03T06:49:30;3.53;;;0.98;;
13731;SDS011;6937;56.096;12.664;2023-04-03T06:51:56;2.55;;;0.85;;
13731;SDS011;6937;56.096;12.664;2023-04-03T06:54:22;3.28;;;1.05;;
13731;SDS011;6937;56.096;12.664;2023-04-03T06:56:48;3.65;;;1.08;;
13731;SDS011;6937;56.096;12.664;2023-04-03T06:59:14;2.83;;;0.90;;
13731;SDS011;6937;56.096;12.664;2023-04-03T07:01:40;3.50;;;1.20;;
13731;SDS011;6937;56.096;12.664;2023-04-03T07:04:05;4.38;;;1.15;;
13731;SDS011;6937;56.096;12.664;2023-04-03T07:06:31;5.38;;;1.10;;
13731;SDS011;6937;56.096;12.664;2023-04-03T07:08:58;2.95;;;0.82;;
13731;SDS011;6937;56.096;12.664;2023-04-03T07:11:23;2.63;;;0.80;;
13731;SDS011;6937;56.096;12.664;2023-04-03T07:13:49;1.80;;;0.90;;
13731;SDS011;6937;56.096;12.664;2023-04-03T07:16:15;6.30;;;1.10;;
13731;SDS011;6937;56.096;12.664;2023-04-03T07:18:40;4.35;;;1.20;;
13731;SDS011;6937;56.096;12.664;2023-04-03T07:21:06;3.15;;;1.08;;
13731;SDS011;6937;56.096;12.664;2023-04-03T07:23:31;4.07;;;0.95;;
13731;SDS011;6937;56.096;12.664;2023-04-03T07:25:57;2.22;;;0.88;;
13731;SDS011;6937;56.096;12.664;2023-04-03T07:28:22;1.73;;;0.98;;
13731;SDS011;6937;56.096;12.664;2023-04-03T07:33:18;2.03;;;0.75;;
13731;SDS011;6937;56.096;12.664;2023-04-03T07:35:46;2.47;;;0.85;;
13731;SDS011;6937;56.096;12.664;2023-04-03T07:38:11;2.97;;;0.80;;
13731;SDS011;6937;56.096;12.664;2023-04-03T07:40:37;2.60;;;1.00;;
13731;SDS011;6937;56.096;12.664;2023-04-03T07:43:04;3.58;;;0.90;;
13731;SDS011;6937;56.096;12.664;2023-04-03T07:45:30;1.95;;;0.77;;
13731;SDS011;6937;56.096;12.664;2023-04-03T07:47:56;1.30;;;0.80;;
13731;SDS011;6937;56.096;12.664;2023-04-03T07:50:22;1.77;;;0.98;;
13731;SDS011;6937;56.096;12.664;2023-04-03T07:52:48;2.05;;;0.80;;
13731;SDS011;6937;56.096;12.664;2023-04-03T07:55:13;2.40;;;0.70;;
13731;SDS011;6937;56.096;12.664;2023-04-03T07:57:39;2.55;;;0.50;;
13731;SDS011;6937;56.096;12.664;2023-04-03T08:00:05;3.05;;;1.10;;
13731;SDS011;6937;56.096;12.664;2023-04-03T08:02:31;3.40;;;0.95;;
13731;SDS011;6937;56.096;12.664;2023-04-03T08:04:59;3.35;;;0.90;;
13731;SDS011;6937;56.096;12.664;2023-04-03T08:07:25;0.93;;;0.73;;
13731;SDS011;6937;56.096;12.664;2023-04-03T08:09:51;1.77;;;0.75;;
13731;SDS011;6937;56.096;12.664;2023-04-03T08:12:16;3.78;;;0.80;;
13731;SDS011;6937;56.096;12.664;2023-04-03T08:14:42;2.42;;;0.77;;
13731;SDS011;6937;56.096;12.664;2023-04-03T08:17:08;2.60;;;0.90;;
13731;SDS011;6937;56.096;12.664;2023-04-03T08:19:36;4.03;;;0.77;;
13731;SDS011;6937;56.096;12.664;2023-04-03T08:22:05;3.38;;;0.90;;
13731;SDS011;6937;56.096;12.664;2023-04-03T08:24:31;3.38;;;0.75;;
13731;SDS011;6937;56.096;12.664;2023-04-03T08:26:57;3.20;;;0.70;;
13731;SDS011;6937;56.096;12.664;2023-04-03T08:29:23;2.28;;;0.73;;
13731;SDS011;6937;56.096;12.664;2023-04-03T08:31:49;2.15;;;0.50;;
13731;SDS011;6937;56.096;12.664;2023-04-03T08:34:15;1.17;;;0.60;;
13731;SDS011;6937;56.096;12.664;2023-04-03T08:36:42;2.55;;;0.63;;
13731;SDS011;6937;56.096;12.664;2023-04-03T08:39:08;4.75;;;0.80;;
13731;SDS011;6937;56.096;12.664;2023-04-03T08:50:04;3.72;;;0.90;;
13731;SDS011;6937;56.096;12.664;2023-04-03T08:52:42;0.90;;;0.70;;
13731;SDS011;6937;56.096;12.664;2023-04-03T08:57:48;2.38;;;0.80;;
13731;SDS011;6937;56.096;12.664;2023-04-03T09:00:23;1.83;;;0.65;;
13731;SDS011;6937;56.096;12.664;2023-04-03T09:02:51;1.63;;;0.57;;
13731;SDS011;6937;56.096;12.664;2023-04-03T09:08:21;2.78;;;0.65;;
13731;SDS011;6937;56.096;12.664;2023-04-03T09:10:48;0.85;;;0.50;;
13731;SDS011;6937;56.096;12.664;2023-04-03T09:19:15;1.02;;;0.80;;
13731;SDS011;6937;56.096;12.664;2023-04-03T09:21:48;1.73;;;0.70;;
13731;SDS011;6937;56.096;12.664;2023-04-03T09:24:14;1.73;;;0.70;;
13731;SDS011;6937;56.096;12.664;2023-04-03T09:29:35;2.45;;;0.95;;
13731;SDS011;6937;56.096;12.664;2023-04-03T09:34:54;2.80;;;0.77;;
13731;SDS011;6937;56.096;12.664;2023-04-03T09:43:00;2.80;;;0.80;;
13731;SDS011;6937;56.096;12.664;2023-04-03T09:45:45;1.60;;;0.60;;
13731;SDS011;6937;56.096;12.664;2023-04-03T09:50:38;1.73;;;0.60;;
13731;SDS011;6937;56.096;12.664;2023-04-03T09:53:28;1.48;;;0.60;;
13731;SDS011;6937;56.096;12.664;2023-04-03T09:55:53;0.60;;;0.50;;
13731;SDS011;6937;56.096;12.664;2023-04-03T10:04:03;2.67;;;0.77;;
13731;SDS011;6937;56.096;12.664;2023-04-03T10:06:38;2.00;;;0.60;;
13731;SDS011;6937;56.096;12.664;2023-04-03T10:09:19;1.17;;;0.50;;
13731;SDS011;6937;56.096;12.664;2023-04-03T10:14:57;1.92;;;0.40;;
13731;SDS011;6937;56.096;12.664;2023-04-03T10:28:16;2.47;;;0.60;;
13731;SDS011;6937;56.096;12.664;2023-04-03T10:30:55;1.15;;;0.32;;
13731;SDS011;6937;56.096;12.664;2023-04-03T10:33:41;1.70;;;0.52;;
13731;SDS011;6937;56.096;12.664;2023-04-03T10:47:56;0.90;;;0.40;;
13731;SDS011;6937;56.096;12.664;2023-04-03T10:50:26;0.77;;;0.40;;
13731;SDS011;6937;56.096;12.664;2023-04-03T10:53:21;1.00;;;0.55;;
13731;SDS011;6937;56.096;12.664;2023-04-03T10:58:30;0.90;;;0.45;;
13731;SDS011;6937;56.096;12.664;2023-04-03T11:01:01;0.73;;;0.55;;
13731;SDS011;6937;56.096;12.664;2023-04-03T11:03:32;2.00;;;0.50;;
13731;SDS011;6937;56.096;12.664;2023-04-03T11:06:02;1.35;;;0.60;;
13731;SDS011;6937;56.096;12.664;2023-04-03T11:08:34;0.82;;;0.50;;
13731;SDS011;6937;56.096;12.664;2023-04-03T11:11:11;1.85;;;0.45;;
13731;SDS011;6937;56.096;12.664;2023-04-03T11:13:58;1.58;;;0.40;;
13731;SDS011;6937;56.096;12.664;2023-04-03T11:16:29;3.00;;;0.77;;
13731;SDS011;6937;56.096;12.664;2023-04-03T11:21:37;1.05;;;0.47;;
13731;SDS011;6937;56.096;12.664;2023-04-03T11:24:13;0.50;;;0.50;;
13731;SDS011;6937;56.096;12.664;2023-04-03T11:26:45;1.20;;;0.50;;
13731;SDS011;6937;56.096;12.664;2023-04-03T11:29:14;0.75;;;0.40;;
13731;SDS011;6937;56.096;12.664;2023-04-03T11:34:50;2.83;;;0.50;;
13731;SDS011;6937;56.096;12.664;2023-04-03T11:40:02;1.17;;;0.50;;
13731;SDS011;6937;56.096;12.664;2023-04-03T11:42:34;2.75;;;0.50;;
13731;SDS011;6937;56.096;12.664;2023-04-03T11:45:23;2.50;;;0.68;;
13731;SDS011;6937;56.096;12.664;2023-04-03T11:47:52;1.40;;;0.50;;
13731;SDS011;6937;56.096;12.664;2023-04-03T11:50:38;2.28;;;0.60;;
13731;SDS011;6937;56.096;12.664;2023-04-03T12:05:52;1.60;;;0.50;;
13731;SDS011;6937;56.096;12.664;2023-04-03T12:13:36;1.42;;;0.60;;
13731;SDS011;6937;56.096;12.664;2023-04-03T12:21:13;1.08;;;0.55;;
13731;SDS011;6937;56.096;12.664;2023-04-03T12:40:21;1.30;;;0.60;;
13731;SDS011;6937;56.096;12.664;2023-04-03T12:45:59;0.95;;;0.70;;
13731;SDS011;6937;56.096;12.664;2023-04-03T12:48:29;0.80;;;0.55;;
13731;SDS011;6937;56.096;12.664;2023-04-03T12:50:57;0.73;;;0.50;;
13731;SDS011;6937;56.096;12.664;2023-04-03T12:53:25;4.20;;;0.75;;
13731;SDS011;6937;56.096;12.664;2023-04-03T12:55:55;2.15;;;0.50;;
13731;SDS011;6937;56.096;12.664;2023-04-03T13:03:41;1.38;;;0.70;;
13731;SDS011;6937;56.096;12.664;2023-04-03T13:06:24;1.98;;;0.60;;
13731;SDS011;6937;56.096;12.664;2023-04-03T13:08:59;1.00;;;0.45;;
13731;SDS011;6937;56.096;12.664;2023-04-03T13:11:35;1.42;;;0.40;;
13731;SDS011;6937;56.096;12.664;2023-04-03T13:14:12;1.08;;;0.50;;
13731;SDS011;6937;56.096;12.664;2023-04-03T13:16:40;1.10;;;0.50;;
13731;SDS011;6937;56.096;12.664;2023-04-03T13:19:14;2.60;;;0.63;;
13731;SDS011;6937;56.096;12.664;2023-04-03T13:21:41;1.48;;;0.50;;
13731;SDS011;6937;56.096;12.664;2023-04-03T13:24:08;2.35;;;0.40;;
13731;SDS011;6937;56.096;12.664;2023-04-03T13:26:35;0.70;;;0.40;;
13731;SDS011;6937;56.096;12.664;2023-04-03T13:29:07;1.02;;;0.40;;
13731;SDS011;6937;56.096;12.664;2023-04-03T13:31:46;0.82;;;0.50;;
13731;SDS011;6937;56.096;12.664;2023-04-03T13:34:17;2.17;;;0.60;;
13731;SDS011;6937;56.096;12.664;2023-04-03T13:41:51;1.23;;;0.45;;
13731;SDS011;6937;56.096;12.664;2023-04-03T13:46:51;1.27;;;0.50;;
13731;SDS011;6937;56.096;12.664;2023-04-03T13:49:32;2.60;;;0.60;;
13731;SDS011;6937;56.096;12.664;2023-04-03T13:54:56;1.38;;;0.50;;
13731;SDS011;6937;56.096;12.664;2023-04-03T13:57:24;2.63;;;0.60;;
13731;SDS011;6937;56.096;12.664;2023-04-03T13:59:49;3.30;;;0.90;;
13731;SDS011;6937;56.096;12.664;2023-04-03T14:02:17;1.52;;;0.68;;
13731;SDS011;6937;56.096;12.664;2023-04-03T14:04:57;2.20;;;0.68;;
13731;SDS011;6937;56.096;12.664;2023-04-03T14:07:26;2.35;;;1.05;;
13731;SDS011;6937;56.096;12.664;2023-04-03T14:09:53;1.00;;;0.90;;
13731;SDS011;6937;56.096;12.664;2023-04-03T14:12:31;1.27;;;0.50;;
13731;SDS011;6937;56.096;12.664;2023-04-03T14:15:00;3.13;;;0.80;;
13731;SDS011;6937;56.096;12.664;2023-04-03T14:17:27;1.65;;;0.70;;
13731;SDS011;6937;56.096;12.664;2023-04-03T14:19:53;1.83;;;0.77;;
13731;SDS011;6937;56.096;12.664;2023-04-03T14:22:21;2.40;;;0.68;;
13731;SDS011;6937;56.096;12.664;2023-04-03T14:24:49;1.88;;;0.70;;
13731;SDS011;6937;56.096;12.664;2023-04-03T14:27:17;1.30;;;0.80;;
13731;SDS011;6937;56.096;12.664;2023-04-03T14:29:45;1.98;;;0.70;;
13731;SDS011;6937;56.096;12.664;2023-04-03T14:32:12;0.70;;;0.57;;
13731;SDS011;6937;56.096;12.664;2023-04-03T14:34:39;1.45;;;0.70;;
13731;SDS011;6937;56.096;12.664;2023-04-03T14:37:08;2.38;;;0.65;;
13731;SDS011;6937;56.096;12.664;2023-04-03T14:39:35;2.30;;;0.68;;
13731;SDS011;6937;56.096;12.664;2023-04-03T14:42:01;2.47;;;0.60;;
13731;SDS011;6937;56.096;12.664;2023-04-03T14:44:26;2.30;;;0.73;;
13731;SDS011;6937;56.096;12.664;2023-04-03T14:46:52;0.85;;;0.50;;
13731;SDS011;6937;56.096;12.664;2023-04-03T14:49:19;2.25;;;0.73;;
13731;SDS011;6937;56.096;12.664;2023-04-03T14:51:46;1.45;;;0.70;;
13731;SDS011;6937;56.096;12.664;2023-04-03T14:54:16;0.68;;;0.45;;
13731;SDS011;6937;56.096;12.664;2023-04-03T14:56:44;2.55;;;0.80;;
13731;SDS011;6937;56.096;12.664;2023-04-03T14:59:13;1.45;;;0.70;;
13731;SDS011;6937;56.096;12.664;2023-04-03T15:01:40;1.33;;;0.40;;
13731;SDS011;6937;56.096;12.664;2023-04-03T15:04:10;2.42;;;0.85;;
13731;SDS011;6937;56.096;12.664;2023-04-03T15:06:37;0.65;;;0.60;;
13731;SDS011;6937;56.096;12.664;2023-04-03T15:09:02;2.08;;;0.88;;
13731;SDS011;6937;56.096;12.664;2023-04-03T15:11:28;2.47;;;1.08;;
13731;SDS011;6937;56.096;12.664;2023-04-03T15:13:54;2.65;;;0.90;;
13731;SDS011;6937;56.096;12.664;2023-04-03T15:16:19;1.42;;;0.77;;
13731;SDS011;6937;56.096;12.664;2023-04-03T15:18:45;2.10;;;0.80;;
13731;SDS011;6937;56.096;12.664;2023-04-03T15:21:11;1.17;;;0.60;;
13731;SDS011;6937;56.096;12.664;2023-04-03T15:23:37;1.67;;;0.73;;
13731;SDS011;6937;56.096;12.664;2023-04-03T15:26:03;1.85;;;0.85;;
13731;SDS011;6937;56.096;12.664;2023-04-03T15:28:36;1.15;;;0.52;;
13731;SDS011;6937;56.096;12.664;2023-04-03T15:31:05;2.35;;;0.68;;
13731;SDS011;6937;56.096;12.664;2023-04-03T15:33:31;3.45;;;0.95;;
13731;SDS011;6937;56.096;12.664;2023-04-03T15:35:57;1.33;;;0.57;;
13731;SDS011;6937;56.096;12.664;2023-04-03T15:38:23;2.88;;;0.90;;
13731;SDS011;6937;56.096;12.664;2023-04-03T15:40:48;1.88;;;0.80;;
13731;SDS011;6937;56.096;12.664;2023-04-03T15:43:14;2.92;;;0.90;;
13731;SDS011;6937;56.096;12.664;2023-04-03T15:45:40;1.48;;;0.60;;
13731;SDS011;6937;56.096;12.664;2023-04-03T15:48:06;2.55;;;0.80;;
13731;SDS011;6937;56.096;12.664;2023-04-03T15:50:33;2.75;;;0.93;;
13731;SDS011;6937;56.096;12.664;2023-04-03T15:53:00;1.70;;;0.70;;
13731;SDS011;6937;56.096;12.664;2023-04-03T15:55:27;5.20;;;1.10;;
13731;SDS011;6937;56.096;12.664;2023-04-03T15:57:56;2.45;;;0.90;;
13731;SDS011;6937;56.096;12.664;2023-04-03T16:00:22;2.35;;;0.77;;
13731;SDS011;6937;56.096;12.664;2023-04-03T16:02:49;2.03;;;0.80;;
13731;SDS011;6937;56.096;12.664;2023-04-03T16:05:17;2.42;;;0.90;;
13731;SDS011;6937;56.096;12.664;2023-04-03T16:07:43;2.42;;;1.00;;
13731;SDS011;6937;56.096;12.664;2023-04-03T16:10:10;1.98;;;0.63;;
13731;SDS011;6937;56.096;12.664;2023-04-03T16:12:37;1.75;;;0.70;;
13731;SDS011;6937;56.096;12.664;2023-04-03T16:15:03;1.17;;;0.60;;
13731;SDS011;6937;56.096;12.664;2023-04-03T16:17:29;1.35;;;0.60;;
13731;SDS011;6937;56.096;12.664;2023-04-03T16:19:56;2.08;;;0.70;;
13731;SDS011;6937;56.096;12.664;2023-04-03T16:22:23;3.42;;;0.70;;
13731;SDS011;6937;56.096;12.664;2023-04-03T16:24:49;1.77;;;0.68;;
13731;SDS011;6937;56.096;12.664;2023-04-03T16:27:16;1.83;;;0.70;;
13731;SDS011;6937;56.096;12.664;2023-04-03T16:29:41;1.63;;;0.80;;
13731;SDS011;6937;56.096;12.664;2023-04-03T16:32:06;2.22;;;0.63;;
13731;SDS011;6937;56.096;12.664;2023-04-03T16:34:32;2.30;;;0.90;;
13731;SDS011;6937;56.096;12.664;2023-04-03T16:36:58;1.83;;;0.68;;
13731;SDS011;6937;56.096;12.664;2023-04-03T16:39:24;0.95;;;0.50;;
13731;SDS011;6937;56.096;12.664;2023-04-03T16:41:49;0.88;;;0.60;;
13731;SDS011;6937;56.096;12.664;2023-04-03T16:44:15;1.63;;;0.68;;
13731;SDS011;6937;56.096;12.664;2023-04-03T16:46:40;3.58;;;0.95;;
13731;SDS011;6937;56.096;12.664;2023-04-03T16:49:06;3.55;;;0.90;;
13731;SDS011;6937;56.096;12.664;2023-04-03T16:51:31;3.10;;;0.85;;
13731;SDS011;6937;56.096;12.664;2023-04-03T16:53:57;1.80;;;0.60;;
13731;SDS011;6937;56.096;12.664;2023-04-03T16:56:23;1.27;;;0.52;;
13731;SDS011;6937;56.096;12.664;2023-04-03T16:58:50;0.80;;;0.50;;
13731;SDS011;6937;56.096;12.664;2023-04-03T17:01:16;1.40;;;0.60;;
13731;SDS011;6937;56.096;12.664;2023-04-03T17:03:44;1.98;;;0.65;;
13731;SDS011;6937;56.096;12.664;2023-04-03T17:06:10;2.08;;;0.70;;
13731;SDS011;6937;56.096;12.664;2023-04-03T17:08:41;2.10;;;0.70;;
13731;SDS011;6937;56.096;12.664;2023-04-03T17:11:10;1.23;;;0.60;;
13731;SDS011;6937;56.096;12.664;2023-04-03T17:13:36;1.67;;;0.70;;